Purki — 9HA2386 — position and weather

sailwx.info

Track history (hours):
 
Tides and Currents Weather Stations Pressure Air Temp Water Temp Dewpoint Dewpoint Depression Visibility Wind Speed Wind Dir Waves Ship Positions

Purki

Last reported at 2016-Feb-04 23:09 UTC. Time now 2016-Feb-10 06:43 UTC.
Position N 38°29' E 002°31'.

Length 146 m; draft 7.5 m.

Type: Cargo ship. MMSI: 248495000.

Date/timePositionNaut miles runAvg speedWind from/ knotsBaromVisibWave heightAir tempDewpointWater temp
2016-Feb-04 23:09N 38°29' E 002°31'712.2
2016-Feb-04 22:33N 38°36' E 002°28'1312.5
2016-Feb-04 21:33N 38°48' E 002°24'1212.2
2016-Feb-04 20:33N 38°60' E 002°20'1212.3
2016-Feb-04 19:33N 39°11' E 002°16'1212.5
2016-Feb-04 18:33N 39°23' E 002°11'1211.7
2016-Feb-04 17:33N 39°35' E 002°11'1211.6
2016-Feb-04 16:33N 39°47' E 002°13'1312.9
2016-Feb-04 15:33N 39°60' E 002°13'1212.2
2016-Feb-04 14:33N 40°12' E 002°12'1212.0
2016-Feb-04 13:33N 40°24' E 002°11'1212.1
2016-Feb-04 12:33N 40°36' E 002°12'1212.3
2016-Feb-04 11:33N 40°48' E 002°12'1312.8
2016-Feb-04 10:33N 41°01' E 002°11'1812.4
2016-Feb-04 09:08N 41°19' E 002°10'3 0.2
2016-Feb-03 17:24N 41°21' E 002°10'0 0.0
2016-Feb-03 14:33N 41°21' E 002°10'5 4.5
2016-Feb-03 13:33N 41°17' E 002°12'12611.4
2016-Feb-03 02:31N 42°08' E 004°46'1611.7
2016-Feb-03 01:09N 42°16' E 005°05'711.7
2016-Feb-03 00:32N 42°20' E 005°13'2311.4
2016-Feb-02 22:33N 42°31' E 005°40'1211.8
2016-Feb-02 21:33N 42°38' E 005°53'6212.3
2016-Feb-02 16:33N 43°10' E 007°05'1512.3
2016-Feb-02 15:21N 43°19' E 007°21'1012.5
2016-Feb-02 14:32N 43°25' E 007°32'5512.7
2016-Feb-02 10:12N 44°01' E 008°30'813.0
2016-Feb-02 09:33N 44°07' E 008°38'1312.8
2016-Feb-02 08:33N 44°15' E 008°52'9 8.9
2016-Feb-02 07:34N 44°24' E 008°55'2 1.4
2016-Feb-02 06:28N 44°24' E 008°53'0 0.0
2016-Feb-02 05:28N 44°24' E 008°53'0 0.0
2016-Feb-02 04:31N 44°24' E 008°53'0 0.0
2016-Feb-02 03:31N 44°24' E 008°53'0 0.0
2016-Feb-02 02:31N 44°24' E 008°53'0 0.0
2016-Feb-02 01:31N 44°24' E 008°53'0 0.0
2016-Feb-02 00:31N 44°24' E 008°53'0 0.0
2016-Feb-01 23:31N 44°24' E 008°53'0 0.0
2016-Feb-01 22:28N 44°24' E 008°53'0 0.0
2016-Feb-01 21:31N 44°24' E 008°53'0 0.0
2016-Feb-01 20:25N 44°24' E 008°53'0 0.0
2016-Feb-01 19:25N 44°24' E 008°53'0 0.0
2016-Feb-01 18:25N 44°24' E 008°53'0 0.0
2016-Feb-01 17:31N 44°24' E 008°53'0 0.0
2016-Feb-01 16:31N 44°24' E 008°53'0 0.0
2016-Feb-01 15:31N 44°24' E 008°53'0 0.0
2016-Feb-01 14:31N 44°24' E 008°53'0 0.0
2016-Feb-01 13:31N 44°24' E 008°53'0 0.0
2016-Feb-01 12:31N 44°24' E 008°53'0 0.0
2016-Feb-01 11:31N 44°24' E 008°53'0 0.0
2016-Feb-01 10:31N 44°24' E 008°53'0 0.0
2016-Feb-01 09:31N 44°24' E 008°53'0 0.0
2016-Feb-01 08:31N 44°24' E 008°53'1 0.8
2016-Feb-01 07:33N 44°24' E 008°54'6 5.6
2016-Feb-01 06:33N 44°19' E 008°57'8 7.9
2016-Feb-01 05:33N 44°17' E 008°46'1 1.0
2016-Feb-01 04:33N 44°16' E 008°47'2 1.9
2016-Feb-01 03:33N 44°16' E 008°50'2 1.5
2016-Feb-01 02:33N 44°16' E 008°48'2 1.7
2016-Feb-01 01:33N 44°17' E 008°46'2 2.1
2016-Feb-01 00:33N 44°15' E 008°48'2 2.4
2016-Jan-31 23:33N 44°15' E 008°51'1 0.8
2016-Jan-31 22:33N 44°15' E 008°52'6 6.2
2016-Jan-31 21:33N 44°18' E 008°45'1 1.4
2016-Jan-31 20:33N 44°17' E 008°47'2 1.9
2016-Jan-31 19:33N 44°16' E 008°49'2 1.6
2016-Jan-31 18:33N 44°18' E 008°49'2 1.8
2016-Jan-31 17:33N 44°17' E 008°51'2 2.4
2016-Jan-31 16:33N 44°16' E 008°53'7 7.4
2016-Jan-31 15:33N 44°20' E 009°01'1 1.3
2016-Jan-31 14:31N 44°22' E 009°02'0 0.0
2016-Jan-31 13:31N 44°22' E 009°02'0 0.0
2016-Jan-31 12:28N 44°22' E 009°02'0 0.0
2016-Jan-31 11:31N 44°22' E 009°02'0 0.0
2016-Jan-31 10:28N 44°22' E 009°02'0 0.0
2016-Jan-31 09:31N 44°22' E 009°02'0 0.0
2016-Jan-31 08:31N 44°22' E 009°02'0 0.0
2016-Jan-31 07:31N 44°22' E 009°02'0 0.0
2016-Jan-31 06:31N 44°22' E 009°02'0 0.0
2016-Jan-31 05:31N 44°22' E 009°02'0 0.0
2016-Jan-31 04:31N 44°22' E 009°02'0 0.0
2016-Jan-31 03:34N 44°22' E 009°02'0 0.2
2016-Jan-31 02:22N 44°22' E 009°02'0 0.1
2016-Jan-31 01:25N 44°22' E 009°02'0 0.0
2016-Jan-31 00:28N 44°22' E 009°02'0 0.1
2016-Jan-30 23:31N 44°22' E 009°02'9 9.1
2016-Jan-30 22:34N 44°13' E 009°01'1414.0
2016-Jan-30 21:34N 44°01' E 009°10'1212.5
2016-Jan-30 20:34N 43°52' E 009°22'1212.4
2016-Jan-30 19:33N 43°44' E 009°36'1313.4
2016-Jan-30 18:34N 43°35' E 009°50'1312.9
2016-Jan-30 17:34N 43°30' E 010°06'10 9.5
2016-Jan-30 16:33N 43°34' E 010°18'1 0.6
2016-Jan-30 15:32N 43°34' E 010°18'0 0.0
2016-Jan-30 14:32N 43°34' E 010°18'0 0.0
2016-Jan-30 13:32N 43°34' E 010°18'0 0.0
2016-Jan-30 12:32N 43°34' E 010°18'0 0.0
2016-Jan-30 11:32N 43°34' E 010°18'0 0.0
2016-Jan-30 10:32N 43°34' E 010°18'0 0.4
2016-Jan-30 09:33N 43°34' E 010°18'5 5.0
2016-Jan-30 08:33N 43°30' E 010°14'1 1.1
2016-Jan-30 07:34N 43°30' E 010°13'1211.7
2016-Jan-30 06:33N 43°19' E 010°06'1312.9
2016-Jan-30 05:34N 43°06' E 010°03'24912.4
2016-Jan-29 09:33N 38°59' E 009°26'1313.1
2016-Jan-29 08:33N 39°05' E 009°11'9 9.2
2016-Jan-29 07:33N 39°13' E 009°04'0 0.2
2016-Jan-29 06:32N 39°13' E 009°04'0 0.0
2016-Jan-29 05:32N 39°13' E 009°04'0 0.0
2016-Jan-29 04:32N 39°13' E 009°04'0 0.0
2016-Jan-29 03:32N 39°13' E 009°04'0 0.0
2016-Jan-29 02:32N 39°13' E 009°04'0 0.0
2016-Jan-29 01:32N 39°13' E 009°04'0 0.0
2016-Jan-29 00:32N 39°13' E 009°04'0 0.0
2016-Jan-28 23:32N 39°13' E 009°04'0 0.0
2016-Jan-28 22:32N 39°13' E 009°04'0 0.0
2016-Jan-28 21:32N 39°13' E 009°04'2 2.3
2016-Jan-28 20:33N 39°11' E 009°06'1111.0
2016-Jan-28 19:32N 39°01' E 009°11'2210.7
2016-Jan-28 17:30N 38°45' E 008°52'1112.2
2016-Jan-28 16:34N 38°41' E 008°38'  
Track history (hours):
 
Tides and Currents Weather Stations Pressure Air Temp Water Temp Dewpoint Dewpoint Depression Visibility Wind Speed Wind Dir Waves Ship Positions

Purki

Last reported at 2016-Feb-04 23:09 UTC. Time now 2016-Feb-10 06:43 UTC.
Position N 38°29' E 002°31'.

Length 146 m; draft 7.5 m.

Type: Cargo ship. MMSI: 248495000.

Date/timePositionNaut miles runAvg speedWind from/ knotsBaromVisibWave heightAir tempDewpointWater temp
2016-Feb-04 23:09N 38°29' E 002°31'712.2
2016-Feb-04 22:33N 38°36' E 002°28'1312.5
2016-Feb-04 21:33N 38°48' E 002°24'1212.2
2016-Feb-04 20:33N 38°60' E 002°20'1212.3
2016-Feb-04 19:33N 39°11' E 002°16'1212.5
2016-Feb-04 18:33N 39°23' E 002°11'1211.7
2016-Feb-04 17:33N 39°35' E 002°11'1211.6
2016-Feb-04 16:33N 39°47' E 002°13'1312.9
2016-Feb-04 15:33N 39°60' E 002°13'1212.2
2016-Feb-04 14:33N 40°12' E 002°12'1212.0
2016-Feb-04 13:33N 40°24' E 002°11'1212.1
2016-Feb-04 12:33N 40°36' E 002°12'1212.3
2016-Feb-04 11:33N 40°48' E 002°12'1312.8
2016-Feb-04 10:33N 41°01' E 002°11'1812.4
2016-Feb-04 09:08N 41°19' E 002°10'3 0.2
2016-Feb-03 17:24N 41°21' E 002°10'0 0.0
2016-Feb-03 14:33N 41°21' E 002°10'5 4.5
2016-Feb-03 13:33N 41°17' E 002°12'12611.4
2016-Feb-03 02:31N 42°08' E 004°46'1611.7
2016-Feb-03 01:09N 42°16' E 005°05'711.7
2016-Feb-03 00:32N 42°20' E 005°13'2311.4
2016-Feb-02 22:33N 42°31' E 005°40'1211.8
2016-Feb-02 21:33N 42°38' E 005°53'6212.3
2016-Feb-02 16:33N 43°10' E 007°05'1512.3
2016-Feb-02 15:21N 43°19' E 007°21'1012.5
2016-Feb-02 14:32N 43°25' E 007°32'5512.7
2016-Feb-02 10:12N 44°01' E 008°30'813.0
2016-Feb-02 09:33N 44°07' E 008°38'1312.8
2016-Feb-02 08:33N 44°15' E 008°52'9 8.9
2016-Feb-02 07:34N 44°24' E 008°55'2 1.4
2016-Feb-02 06:28N 44°24' E 008°53'0 0.0
2016-Feb-02 05:28N 44°24' E 008°53'0 0.0
2016-Feb-02 04:31N 44°24' E 008°53'0 0.0
2016-Feb-02 03:31N 44°24' E 008°53'0 0.0
2016-Feb-02 02:31N 44°24' E 008°53'0 0.0
2016-Feb-02 01:31N 44°24' E 008°53'0 0.0
2016-Feb-02 00:31N 44°24' E 008°53'0 0.0
2016-Feb-01 23:31N 44°24' E 008°53'0 0.0
2016-Feb-01 22:28N 44°24' E 008°53'0 0.0
2016-Feb-01 21:31N 44°24' E 008°53'0 0.0
2016-Feb-01 20:25N 44°24' E 008°53'0 0.0
2016-Feb-01 19:25N 44°24' E 008°53'0 0.0
2016-Feb-01 18:25N 44°24' E 008°53'0 0.0
2016-Feb-01 17:31N 44°24' E 008°53'0 0.0
2016-Feb-01 16:31N 44°24' E 008°53'0 0.0
2016-Feb-01 15:31N 44°24' E 008°53'0 0.0
2016-Feb-01 14:31N 44°24' E 008°53'0 0.0
2016-Feb-01 13:31N 44°24' E 008°53'0 0.0
2016-Feb-01 12:31N 44°24' E 008°53'0 0.0
2016-Feb-01 11:31N 44°24' E 008°53'0 0.0
2016-Feb-01 10:31N 44°24' E 008°53'0 0.0
2016-Feb-01 09:31N 44°24' E 008°53'0 0.0
2016-Feb-01 08:31N 44°24' E 008°53'1 0.8
2016-Feb-01 07:33N 44°24' E 008°54'6 5.6
2016-Feb-01 06:33N 44°19' E 008°57'8 7.9
2016-Feb-01 05:33N 44°17' E 008°46'1 1.0
2016-Feb-01 04:33N 44°16' E 008°47'2 1.9
2016-Feb-01 03:33N 44°16' E 008°50'2 1.5
2016-Feb-01 02:33N 44°16' E 008°48'2 1.7
2016-Feb-01 01:33N 44°17' E 008°46'2 2.1
2016-Feb-01 00:33N 44°15' E 008°48'2 2.4
2016-Jan-31 23:33N 44°15' E 008°51'1 0.8
2016-Jan-31 22:33N 44°15' E 008°52'6 6.2
2016-Jan-31 21:33N 44°18' E 008°45'1 1.4
2016-Jan-31 20:33N 44°17' E 008°47'2 1.9
2016-Jan-31 19:33N 44°16' E 008°49'2 1.6
2016-Jan-31 18:33N 44°18' E 008°49'2 1.8
2016-Jan-31 17:33N 44°17' E 008°51'2 2.4
2016-Jan-31 16:33N 44°16' E 008°53'7 7.4
2016-Jan-31 15:33N 44°20' E 009°01'1 1.3
2016-Jan-31 14:31N 44°22' E 009°02'0 0.0
2016-Jan-31 13:31N 44°22' E 009°02'0 0.0
2016-Jan-31 12:28N 44°22' E 009°02'0 0.0
2016-Jan-31 11:31N 44°22' E 009°02'0 0.0
2016-Jan-31 10:28N 44°22' E 009°02'0 0.0
2016-Jan-31 09:31N 44°22' E 009°02'0 0.0
2016-Jan-31 08:31N 44°22' E 009°02'0 0.0
2016-Jan-31 07:31N 44°22' E 009°02'0 0.0
2016-Jan-31 06:31N 44°22' E 009°02'0 0.0
2016-Jan-31 05:31N 44°22' E 009°02'0 0.0
2016-Jan-31 04:31N 44°22' E 009°02'0 0.0
2016-Jan-31 03:34N 44°22' E 009°02'0 0.2
2016-Jan-31 02:22N 44°22' E 009°02'0 0.1
2016-Jan-31 01:25N 44°22' E 009°02'0 0.0
2016-Jan-31 00:28N 44°22' E 009°02'0 0.1
2016-Jan-30 23:31N 44°22' E 009°02'9 9.1
2016-Jan-30 22:34N 44°13' E 009°01'1414.0
2016-Jan-30 21:34N 44°01' E 009°10'1212.5
2016-Jan-30 20:34N 43°52' E 009°22'1212.4
2016-Jan-30 19:33N 43°44' E 009°36'1313.4
2016-Jan-30 18:34N 43°35' E 009°50'1312.9
2016-Jan-30 17:34N 43°30' E 010°06'10 9.5
2016-Jan-30 16:33N 43°34' E 010°18'1 0.6
2016-Jan-30 15:32N 43°34' E 010°18'0 0.0
2016-Jan-30 14:32N 43°34' E 010°18'0 0.0
2016-Jan-30 13:32N 43°34' E 010°18'0 0.0
2016-Jan-30 12:32N 43°34' E 010°18'0 0.0
2016-Jan-30 11:32N 43°34' E 010°18'0 0.0
2016-Jan-30 10:32N 43°34' E 010°18'0 0.4
2016-Jan-30 09:33N 43°34' E 010°18'5 5.0
2016-Jan-30 08:33N 43°30' E 010°14'1 1.1
2016-Jan-30 07:34N 43°30' E 010°13'1211.7
2016-Jan-30 06:33N 43°19' E 010°06'1312.9
2016-Jan-30 05:34N 43°06' E 010°03'24912.4
2016-Jan-29 09:33N 38°59' E 009°26'1313.1
2016-Jan-29 08:33N 39°05' E 009°11'9 9.2
2016-Jan-29 07:33N 39°13' E 009°04'0 0.2
2016-Jan-29 06:32N 39°13' E 009°04'0 0.0
2016-Jan-29 05:32N 39°13' E 009°04'0 0.0
2016-Jan-29 04:32N 39°13' E 009°04'0 0.0
2016-Jan-29 03:32N 39°13' E 009°04'0 0.0
2016-Jan-29 02:32N 39°13' E 009°04'0 0.0
2016-Jan-29 01:32N 39°13' E 009°04'0 0.0
2016-Jan-29 00:32N 39°13' E 009°04'0 0.0
2016-Jan-28 23:32N 39°13' E 009°04'0 0.0
2016-Jan-28 22:32N 39°13' E 009°04'0 0.0
2016-Jan-28 21:32N 39°13' E 009°04'2 2.3
2016-Jan-28 20:33N 39°11' E 009°06'1111.0
2016-Jan-28 19:32N 39°01' E 009°11'2210.7
2016-Jan-28 17:30N 38°45' E 008°52'1112.2
2016-Jan-28 16:34N 38°41' E 008°38'  

Dump ship's entire track history